Latest Coastal Weather Observations for Avalon

IDV60701

Issued at 11:51 am EST Wednesday 29 June 2016 (issued every 10 minutes, with the page automatically refreshed every 10 minutes)

About coastal observations | Map of coastal stations | Coastal observations for VIC | Marine services | Other Formats
Station Details ID: 087113 Name: AVALON AIRPORT Lat: -38.03 Lon: 144.48 Height: 10.6 m
Data from the previous 72 hours. | See also: Recent months at Avalon
Date/Time
EST
Temp
°C
Wind Pressure Rain since
9am
mm
Weather Cloud Vis
km
Sea
Height
m
Swell
Dir  Spd
kts
Gust
kts
hPa Trend Height
m
Period
s
Dir
29/11:30am 15.2 NNW 13 17 1025.4 - 0.0 - - 10 - - - -
29/11:00am 14.5 N 10 14 1026.0 - 0.0 - - 10 - - - -
29/10:30am 13.8 N 10 13 1026.2 - 0.0 - - 10 - - - -
29/10:00am 12.9 NNE 10 13 1026.3 - 0.0 - - 10 - - - -
29/09:30am 12.0 N 10 13 1026.2 - 0.0 - - 10 - - - -
29/09:00am 10.8 N 9 11 1026.2 - 0.0 - - 10 - - - -
29/08:30am 10.0 N 10 12 1026.0 - 0.0 - - 10 - - - -
29/08:00am 9.3 NNE 10 13 1025.8 - 0.0 - - 10 - - - -
29/07:30am 9.4 N 9 12 1025.8 - 0.0 - Cloudy 10 - - - -
29/07:00am 9.3 N 7 9 1025.8 - 0.0 - Cloudy 10 - - - -
29/06:30am 9.9 NNW 7 9 1025.6 - 0.0 - Cloudy 10 - - - -
29/06:00am 9.4 N 8 9 1025.4 - 0.0 - Cloudy 10 - - - -
29/05:30am 8.2 N 6 7 1025.2 - 0.0 - Cloudy 10 - - - -
29/05:00am 7.5 N 7 8 1025.1 - 0.0 - Partly cloudy 10 - - - -
29/04:30am 7.6 N 6 7 1025.1 - 0.0 - Partly cloudy 10 - - - -
29/04:00am 7.8 N 7 7 1025.2 - 0.0 - Partly cloudy 10 - - - -
29/03:30am 7.9 N 8 8 1025.3 - 0.0 - - 10 - - - -
29/03:00am 8.3 N 8 9 1025.2 - 0.0 - Mostly clear 10 - - - -
29/02:30am 9.9 NNW 9 10 1025.2 - 0.0 - - 10 - - - -
29/02:00am 10.5 NNW 9 11 1025.2 - 0.0 - Partly cloudy 10 - - - -
29/01:30am 11.0 NW 9 12 1025.1 - 0.0 - Partly cloudy 10 - - - -
29/01:00am 11.4 NW 9 11 1025.3 - 0.0 - Partly cloudy 10 - - - -
29/12:30am 10.5 NW 8 10 1025.4 - 0.0 - - 10 - - - -
29/12:00am 10.8 NW 7 9 1025.4 - 0.0 - Mostly clear 10 - - - -
 
Date/Time
EST
Temp
°C
Wind Pressure Rain since
9am
mm
Weather Cloud Vis
km
Sea
Height
m
Swell
Dir  Spd
kts
Gust
kts
hPa Trend Height
m
Period
s
Dir
28/11:30pm 11.6 NW 8 11 1025.5 - 0.0 - Partly cloudy 10 - - - -
28/11:00pm 12.2 NW 11 14 1025.6 - 0.0 - Partly cloudy 10 - - - -
28/10:30pm 11.6 NNW 10 12 1025.5 - 0.0 - Partly cloudy 10 - - - -
28/10:00pm 12.4 NNW 11 15 1025.4 - 0.0 - Cloudy 10 - - - -
28/09:30pm 12.4 NNW 10 13 1025.4 - 0.0 - Cloudy 10 - - - -
28/09:00pm 12.4 NNW 10 12 1025.3 - 0.0 - Mostly cloudy 10 - - - -
28/08:30pm 12.7 NNW 11 13 1025.2 - 0.0 - Cloudy 10 - - - -
28/08:00pm 12.6 NNW 10 13 1025.1 - 0.0 - Partly cloudy 10 - - - -
28/07:30pm 12.3 NNW 9 11 1025.0 - 0.0 - Partly cloudy 10 - - - -
28/07:00pm 12.1 NNW 8 10 1024.8 - 0.0 - Partly cloudy 10 - - - -
28/06:30pm 12.4 NNW 7 9 1024.8 - 0.0 - Partly cloudy 10 - - - -
28/06:00pm 12.9 NNW 9 11 1024.4 - 0.0 - Cloudy 10 - - - -
28/05:30pm 13.5 NNW 8 11 1024.0 - 0.0 - Cloudy 10 - - - -
28/05:00pm 13.5 NW 5 8 1023.8 - 0.0 - Partly cloudy 10 - - - -
28/04:30pm 14.5 WNW 7 10 1023.5 - 0.0 - Partly cloudy 10 - - - -
28/04:00pm 14.9 NW 11 15 1023.3 - 0.0 - Partly cloudy 10 - - - -
28/03:30pm 15.0 WNW 10 14 1023.1 - 0.0 - Partly cloudy 10 - - - -
28/03:00pm 15.0 NW 10 14 1023.1 - 0.0 - Cloudy 10 - - - -
28/02:30pm 15.4 WNW 13 18 1022.9 - 0.0 - Partly cloudy 10 - - - -
28/02:00pm 15.9 WNW 12 17 1022.9 - 0.0 - Partly cloudy 10 - - - -
28/01:30pm 15.2 WNW 13 16 1022.8 - 0.0 - Partly cloudy 10 - - - -
28/01:00pm 15.4 NW 15 20 1023.0 - 0.0 - Partly cloudy 10 - - - -
28/12:30pm 14.8 WNW 16 21 1023.1 - 0.0 - Partly cloudy 10 - - - -
28/12:00pm 15.0 WNW 17 22 1023.2 - 0.0 - - 10 - - - -
28/11:30am 15.0 WNW 16 21 1023.4 - 0.0 - Partly cloudy 10 - - - -
28/11:00am 14.7 WNW 14 18 1023.5 - 0.0 - Partly cloudy 10 - - - -
28/10:30am 14.1 NW 11 17 1023.4 - 0.0 - Partly cloudy 10 - - - -
28/10:00am 13.7 NW 9 13 1023.2 - 0.0 - Partly cloudy 10 - - - -
28/09:30am 11.6 NNW 5 7 1023.1 - 0.0 - - 10 - - - -
28/09:00am 11.1 NW 8 11 1022.9 - 0.0 - Cloudy 10 - - - -
28/08:30am 10.1 NW 10 13 1022.7 - 0.0 - Partly cloudy 10 - - - -
28/08:00am 9.3 NW 12 16 1022.3 - 0.0 - Cloudy 10 - - - -
28/07:30am 7.6 N 8 10 1022.1 - 0.0 - Cloudy 10 - - - -
28/07:00am 6.9 N 6 8 1022.1 - 0.0 - Partly cloudy 10 - - - -
28/06:30am 6.7 NNW 7 8 1021.8 - 0.0 - Partly cloudy 10 - - - -
28/06:00am 7.8 NNW 9 11 1021.5 - 0.0 - Mostly cloudy 10 - - - -
28/05:30am 8.9 NW 10 13 1021.2 - 0.0 - Cloudy 10 - - - -
28/05:00am 8.8 NW 14 16 1020.9 - 0.0 - Cloudy 10 - - - -
28/04:30am 8.7 NW 12 15 1020.8 - 0.0 - Partly cloudy 10 - - - -
28/04:00am 8.0 NW 12 18 1020.6 - 0.0 - Partly cloudy 10 - - - -
28/03:30am 7.9 NW 10 13 1020.9 - 0.0 - - 10 - - - -
28/03:00am 8.0 NW 9 12 1020.9 - 0.0 - - 10 - - - -
28/02:30am 8.2 NW 13 16 1020.6 - 0.0 - - 10 - - - -
28/02:00am 7.1 NW 9 13 1020.7 - 0.0 - Partly cloudy 10 - - - -
28/01:30am 6.5 NNW 8 11 1020.8 - 0.0 - - 10 - - - -
28/01:00am 6.2 NW 7 9 1020.9 - 0.0 - - 10 - - - -
28/12:30am 6.9 NW 9 10 1020.9 - 0.0 - - 10 - - - -
28/12:00am 6.5 NW 7 8 1021.0 - 0.0 - - 10 - - - -
 
Date/Time
EST
Temp
°C
Wind Pressure Rain since
9am
mm
Weather Cloud Vis
km
Sea
Height
m
Swell
Dir  Spd
kts
Gust
kts
hPa Trend Height
m
Period
s
Dir
27/11:30pm 5.5 NNW 9 9 1020.8 - 0.0 - - 10 - - - -
27/11:00pm 6.0 NW 8 10 1020.8 - 0.0 - - 10 - - - -
27/10:30pm 5.9 NW 8 9 1020.8 - 0.0 - - 10 - - - -
27/10:00pm 6.0 NNW 8 9 1020.6 - 0.0 - - 10 - - - -
27/09:30pm 6.5 NNW 8 9 1020.5 - 0.0 - - 10 - - - -
27/09:00pm 6.4 NNW 8 9 1020.3 - 0.0 - - 10 - - - -
27/08:30pm 6.6 NNW 8 9 1020.2 - 0.0 - Partly cloudy 10 - - - -
27/08:00pm 6.7 NNW 8 9 1019.9 - 0.0 - - 10 - - - -
27/07:30pm 7.0 NNW 8 9 1019.7 - 0.0 - - 10 - - - -
27/07:00pm 7.5 NW 8 10 1019.4 - 0.0 - - 10 - - - -
27/06:30pm 7.3 NNW 9 9 1019.1 - 0.0 - - 10 - - - -
27/06:00pm 9.2 NW 9 11 1018.9 - 0.0 - - 10 - - - -
27/05:30pm 9.5 NW 5 8 1018.6 - 0.0 - - 10 - - - -
27/05:00pm 10.3 WNW 6 7 1018.3 - 0.0 - - 10 - - - -
27/04:30pm 11.6 WNW 9 11 1018.0 - 0.0 - Partly cloudy 10 - - - -
27/04:00pm 12.2 WNW 11 14 1017.8 - 0.0 - Partly cloudy 10 - - - -
27/03:30pm 11.9 WNW 12 15 1017.6 - 0.0 - Cloudy 10 - - - -
27/03:00pm 11.7 WNW 12 14 1017.5 - 0.0 - Cloudy 10 - - - -
27/02:30pm 11.9 W 11 16 1017.2 - 0.0 - Cloudy 10 - - - -
27/02:00pm 11.5 WNW 13 17 1017.1 - 0.0 - Cloudy 10 - - - -
27/01:30pm 11.0 WNW 16 19 1017.2 - 0.0 - Partly cloudy 10 - - - -
27/01:00pm 11.0 W 16 20 1017.2 - 0.0 - Partly cloudy 10 - - - -
27/12:30pm 10.9 W 18 22 1017.3 - 0.0 - Partly cloudy 10 - - - -
27/12:00pm 10.7 W 15 21 1017.5 - 0.0 - Cloudy 10 - - - -
27/11:30am 10.7 W 13 16 1017.5 - 0.0 - Cloudy 10 - - - -
27/11:00am 10.6 WNW 9 11 1017.6 - 0.0 - Cloudy 10 - - - -
27/10:30am 10.2 WNW 9 11 1017.7 - 0.0 - Cloudy 10 - - - -
27/10:00am 9.3 WSW 4 7 1017.5 - 0.0 - Cloudy 10 - - - -
27/09:30am 8.0 SSE 4 5 1017.4 - 0.0 - Cloudy 10 - - - -
27/09:00am 8.5 CALM 0 3 1017.2 - 0.0 - Mostly cloudy 10 - - - -
27/08:30am 7.9 N 5 7 1016.7 - 0.0 - Partly cloudy 10 - - - -
27/08:00am 7.5 N 6 8 1016.4 - 0.0 - Partly cloudy 10 - - - -
27/07:30am 7.7 N 5 7 1016.3 - 0.0 - Partly cloudy 10 - - - -
27/07:00am 7.9 N 3 5 1016.1 - 0.0 - Partly cloudy 10 - - - -
27/06:30am 8.1 NNW 3 5 1015.9 - 0.0 - Partly cloudy 10 - - - -
27/06:00am 7.9 NNW 4 5 1015.7 - 0.0 - Cloudy 10 - - - -
27/05:30am 6.2 N 1 3 1015.5 - 0.0 - Partly cloudy 10 - - - -
27/05:00am 6.2 NNW 3 5 1015.1 - 0.0 - Partly cloudy 10 - - - -
27/04:30am 6.4 ENE 1 3 1015.1 - 0.0 - Cloudy 10 - - - -
27/04:00am 6.6 NNW 4 6 1015.2 - 0.0 - Cloudy 10 - - - -
27/03:30am 6.9 N 8 11 1015.3 - 0.0 - Cloudy 10 - - - -
27/03:00am 6.3 N 8 11 1015.3 - 0.0 - Cloudy 10 - - - -
27/02:30am 5.9 NNE 8 11 1015.4 - 0.0 - Partly cloudy 10 - - - -
27/02:00am 5.0 N 8 10 1015.5 - 0.0 - - 10 - - - -
27/01:30am 5.5 N 8 10 1015.7 - 0.0 - Partly cloudy 10 - - - -
27/01:00am 5.6 NNE 6 9 1015.7 - 0.0 - - 10 - - - -
27/12:30am 5.4 N 8 11 1015.7 - 0.0 - - 10 - - - -
27/12:00am 5.3 NNE 7 9 1015.8 - 0.0 - - 10 - - - -
 
Date/Time
EST
Temp
°C
Wind Pressure Rain since
9am
mm
Weather Cloud Vis
km
Sea
Height
m
Swell
Dir  Spd
kts
Gust
kts
hPa Trend Height
m
Period
s
Dir
26/11:30pm 5.4 N 9 11 1015.9 - 0.0 - - 10 - - - -
26/11:00pm 5.2 N 8 11 1015.8 - 0.0 - - 10 - - - -
26/10:30pm 5.6 N 9 11 1015.8 - 0.0 - - 10 - - - -
26/10:00pm 5.5 N 9 11 1016.0 - 0.0 - Partly cloudy 10 - - - -
26/09:30pm 5.8 N 10 12 1016.0 - 0.0 - - 10 - - - -
26/09:00pm 5.4 N 10 13 1016.2 - 0.0 - - 10 - - - -
26/08:30pm 5.6 N 8 11 1016.5 - 0.0 - - 10 - - - -
26/08:00pm 6.2 N 12 15 1016.7 - 0.0 - - 10 - - - -
26/07:30pm 5.4 N 10 12 1016.7 - 0.0 - - 10 - - - -
26/07:00pm 5.9 N 11 14 1016.6 - 0.0 - - 10 - - - -
26/06:30pm 5.9 N 9 11 1016.6 - 0.0 - - 10 - - - -
26/06:00pm 6.0 N 7 8 1016.6 - 0.0 - - 10 - - - -
26/05:30pm 7.2 NNE 7 8 1016.5 - 0.0 - - 10 - - - -
26/05:00pm 7.9 N 9 11 1016.5 - 0.0 - - 10 - - - -
26/04:30pm 9.0 N 11 15 1016.4 - 0.0 - Partly cloudy 10 - - - -
26/04:00pm 9.2 N 13 17 1016.6 - 0.0 - Partly cloudy 10 - - - -
26/03:30pm 9.7 NNW 14 19 1016.6 - 0.0 - Partly cloudy 10 - - - -
26/03:00pm 9.9 NNW 15 19 1016.8 - 0.0 - Partly cloudy 10 - - - -
26/02:30pm 10.2 NNW 16 21 1016.9 - 0.0 - Partly cloudy 10 - - - -
26/02:00pm 10.2 NW 14 18 1017.1 - 0.0 - Cloudy 10 - - - -
26/01:30pm 10.7 NW 13 19 1017.3 - 0.0 - Partly cloudy 10 - - - -
26/01:00pm 11.2 NNW 14 21 1017.6 - 0.0 - Cloudy 10 - - - -
26/12:30pm 10.2 NNW 9 11 1018.0 - 0.0 - Cloudy 10 - - - -
26/12:00pm 10.5 N 9 11 1018.2 - 0.0 - Cloudy 10 - - - -

Other Formats:

Comma delimited format used in spreadsheet applications
http://www.bom.gov.au/fwo/IDV60701/IDV60701.94854.axf

JavaScript Object Notation format (JSON) in row-major order
http://www.bom.gov.au/fwo/IDV60701/IDV60701.94854.json